Time;durP1;ratioP1;P1;durP2;ratioP2;P2;SDS_P1;SDS_P2;PMS_P1;PMS_P2;Temp;Humidity;BMP_temperature;BMP_pressure;BME280_temperature;BME280_humidity;BME280_pressure;Samples;Min_cycle;Max_cycle;Signal;HPM_P1;HPM_P2
2023/03/22 00:00:51;;;;;;;40.80;22.45;;;;;;;10.49;100.00;99744.22;4989898;28;20027;-27
2023/03/22 00:03:17;;;;;;;43.03;22.75;;;;;;;10.37;100.00;99746.84;4989416;28;20030;-27
2023/03/22 00:05:43;;;;;;;37.75;20.75;;;;;;;9.95;100.00;99744.06;4989696;28;20022;-27
2023/03/22 00:08:09;;;;;;;40.58;21.40;;;;;;;10.05;100.00;99739.03;4990294;28;20046;-27
2023/03/22 00:10:37;;;;;;;42.28;22.05;;;;;;;10.04;100.00;99717.94;4989965;28;20042;-27
2023/03/22 00:13:07;;;;;;;38.67;21.73;;;;;;;10.16;100.00;99734.78;4990140;28;20060;-27
2023/03/22 00:15:33;;;;;;;38.78;21.65;;;;;;;10.17;100.00;99748.91;4989745;28;20031;-27
2023/03/22 00:18:00;;;;;;;43.40;22.55;;;;;;;10.37;100.00;99740.72;4989844;28;20073;-28
2023/03/22 00:20:29;;;;;;;40.60;21.33;;;;;;;10.29;100.00;99733.78;4990281;28;20101;-27
2023/03/22 00:22:56;;;;;;;36.42;21.40;;;;;;;10.29;100.00;99743.66;4990163;28;20057;-27
2023/03/22 00:25:21;;;;;;;37.92;22.00;;;;;;;10.21;100.00;99748.25;4989964;28;20684;-27
2023/03/22 00:27:47;;;;;;;35.38;21.27;;;;;;;10.33;100.00;99740.34;4989774;28;20085;-27
2023/03/22 00:30:13;;;;;;;41.53;22.25;;;;;;;10.16;100.00;99745.44;4989982;28;20031;-27
2023/03/22 00:32:41;;;;;;;36.70;21.92;;;;;;;10.05;100.00;99739.03;4989555;28;20026;-27
2023/03/22 00:35:08;;;;;;;36.25;21.67;;;;;;;9.80;100.00;99739.09;4989912;28;20042;-27
2023/03/22 00:37:37;;;;;;;39.15;21.90;;;;;;;9.80;100.00;99746.25;4989448;28;20117;-27
2023/03/22 00:40:08;;;;;;;38.80;21.98;;;;;;;9.81;100.00;99721.28;4989665;28;20030;-27
2023/03/22 00:42:38;;;;;;;35.53;22.55;;;;;;;9.81;100.00;99737.25;4989637;28;20041;-27
2023/03/22 00:45:06;;;;;;;39.70;21.50;;;;;;;9.85;100.00;99733.13;4989602;28;20110;-27
2023/03/22 00:47:31;;;;;;;;;;;;;;;9.84;100.00;99720.81;4990189;28;20060;-27
2023/03/22 00:49:57;;;;;;;39.63;20.15;;;;;;;9.64;100.00;99724.53;4989203;28;19906;-27
2023/03/22 00:52:22;;;;;;;57.10;22.75;;;;;;;9.48;100.00;99722.44;4989478;28;20026;-27
2023/03/22 00:54:48;;;;;;;41.72;21.88;;;;;;;9.50;100.00;99725.69;4988546;28;20073;-27
2023/03/22 00:57:14;;;;;;;39.53;22.05;;;;;;;9.50;100.00;99731.03;4989409;28;20019;-27
2023/03/22 00:59:41;;;;;;;38.90;22.92;;;;;;;9.56;100.00;99730.16;4989188;28;20104;-27
2023/03/22 01:02:08;;;;;;;40.07;22.10;;;;;;;9.54;100.00;99732.22;4989397;28;20034;-27
2023/03/22 01:04:34;;;;;;;41.13;23.45;;;;;;;9.65;100.00;99723.47;4989418;28;20513;-27
2023/03/22 01:07:02;;;;;;;43.67;23.30;;;;;;;9.55;100.00;99722.38;4989258;28;20141;-27
2023/03/22 01:09:29;;;;;;;45.40;23.60;;;;;;;9.64;100.00;99721.88;4989136;28;20022;-27
2023/03/22 01:11:56;;;;;;;44.23;24.17;;;;;;;9.46;100.00;99729.84;4989150;28;20437;-27
2023/03/22 01:14:23;;;;;;;40.53;21.75;;;;;;;9.55;100.00;99735.69;4989051;28;20320;-27
2023/03/22 01:16:49;;;;;;;46.30;22.38;;;;;;;9.22;100.00;99734.13;4989184;28;20030;-27
2023/03/22 01:19:15;;;;;;;48.97;26.73;;;;;;;9.32;100.00;99733.66;4988849;28;20116;-27
2023/03/22 01:21:40;;;;;;;48.60;26.20;;;;;;;9.07;100.00;99721.16;4988920;28;20117;-27
2023/03/22 01:24:06;;;;;;;43.90;26.42;;;;;;;9.22;100.00;99732.28;4988940;28;20520;-28
2023/03/22 01:26:32;;;;;;;46.97;25.17;;;;;;;9.28;100.00;99727.94;4988939;28;20113;-26
2023/03/22 01:28:57;;;;;;;45.30;24.10;;;;;;;9.19;100.00;99729.25;4989002;28;20034;-27
2023/03/22 01:31:22;;;;;;;41.72;22.90;;;;;;;9.07;100.00;99729.13;4988757;28;20033;-27
2023/03/22 01:33:48;;;;;;;43.65;23.23;;;;;;;9.11;100.00;99732.97;4988365;28;20064;-27
2023/03/22 01:36:13;;;;;;;43.53;23.48;;;;;;;9.15;100.00;99742.16;4988583;28;20469;-26
2023/03/22 01:38:39;;;;;;;40.30;23.02;;;;;;;8.98;100.00;99709.16;4988604;28;20073;-27
2023/03/22 01:41:04;;;;;;;43.78;24.05;;;;;;;9.13;100.00;99730.91;4988613;28;20038;-27
2023/03/22 01:43:30;;;;;;;47.30;24.38;;;;;;;9.15;100.00;99725.38;4988405;28;20027;-27
2023/03/22 01:45:55;;;;;;;45.30;24.27;;;;;;;9.01;100.00;99732.66;4988558;28;20038;-26
2023/03/22 01:48:32;;;;;;;44.22;24.17;;;;;;;9.17;100.00;99732.09;4988217;28;20026;-27
2023/03/22 01:51:34;;;;;;;47.20;24.97;;;;;;;9.02;100.00;99734.28;4988568;28;20062;-27
2023/03/22 01:54:04;;;;;;;46.33;23.90;;;;;;;8.83;100.00;99730.75;4927650;29;20035;-27
2023/03/22 01:56:34;;;;;;;45.75;24.80;;;;;;;8.73;100.00;99741.06;4977710;28;20433;-27
2023/03/22 01:59:00;;;;;;;48.17;24.73;;;;;;;8.72;100.00;99734.91;4988153;28;20042;-27
2023/03/22 02:01:26;;;;;;;47.55;22.75;;;;;;;8.60;100.00;99721.50;4988212;28;20105;-27
2023/03/22 02:03:57;;;;;;;49.70;23.83;;;;;;;8.60;100.00;99710.88;4988074;28;20454;-26
2023/03/22 02:06:23;;;;;;;49.17;24.58;;;;;;;8.82;100.00;99729.94;4988163;28;20042;-27
2023/03/22 02:08:51;;;;;;;50.33;25.35;;;;;;;8.62;100.00;99729.25;4987683;28;20145;-27
2023/03/22 02:11:28;;;;;;;48.08;24.63;;;;;;;8.72;100.00;99713.63;4988166;28;20029;-26
2023/03/22 02:14:17;;;;;;;52.30;26.88;;;;;;;9.04;100.00;99737.56;4988204;28;20108;-27
2023/03/22 02:17:07;;;;;;;46.17;24.08;;;;;;;9.02;100.00;99718.34;4987827;28;20034;-27
2023/03/22 02:19:44;;;;;;;49.97;25.17;;;;;;;9.08;100.00;99733.44;4988218;28;20057;-27
2023/03/22 02:22:43;;;;;;;50.13;26.20;;;;;;;9.10;100.00;99730.56;4987646;28;20030;-27
2023/03/22 02:25:16;;;;;;;48.13;24.63;;;;;;;9.10;100.00;99731.38;4987865;28;20030;-27
2023/03/22 02:28:00;;;;;;;44.15;23.85;;;;;;;9.19;100.00;99727.41;4987895;28;20459;-27
2023/03/22 02:30:31;;;;;;;43.13;21.95;;;;;;;8.88;100.00;99727.44;4987502;28;20124;-27
2023/03/22 02:33:00;;;;;;;45.85;23.77;;;;;;;8.87;100.00;99731.13;4987598;28;20583;-27
2023/03/22 02:35:25;;;;;;;45.53;23.35;;;;;;;8.93;100.00;99735.56;4987186;28;20030;-27
2023/03/22 02:38:23;;;;;;;47.20;24.38;;;;;;;8.82;100.00;99726.47;4987552;28;20038;-27
2023/03/22 02:40:51;;;;;;;46.28;24.50;;;;;;;8.85;100.00;99734.81;4987182;28;20121;-27
2023/03/22 02:43:33;;;;;;;50.40;24.25;;;;;;;8.84;100.00;99732.38;4987350;28;20421;-27
2023/03/22 02:46:11;;;;;;;42.22;23.92;;;;;;;8.94;100.00;99735.38;4987215;28;20030;-26
2023/03/22 02:48:56;;;;;;;;;;;;;;;8.90;100.00;99750.13;4987827;28;20043;-27
2023/03/22 02:51:44;;;;;;;46.53;23.48;;;;;;;8.67;100.00;99721.47;4987430;28;20600;-27
2023/03/22 02:54:36;;;;;;;42.83;23.63;;;;;;;8.73;100.00;99731.22;4987168;28;20122;-27
2023/03/22 02:57:08;;;;;;;42.28;23.25;;;;;;;8.96;100.00;99732.50;4982146;28;20042;-27
2023/03/22 02:59:37;;;;;;;42.05;23.50;;;;;;;8.83;100.00;99736.09;4986935;28;20050;-27
2023/03/22 03:02:04;;;;;;;40.35;23.17;;;;;;;8.78;100.00;99739.38;4987243;28;20030;-27
2023/03/22 03:04:35;;;;;;;44.78;23.35;;;;;;;8.72;100.00;99739.41;4986940;28;20479;-27
2023/03/22 03:07:08;;;;;;;43.50;23.98;;;;;;;8.84;100.00;99733.19;4987005;28;20022;-27
2023/03/22 03:09:35;;;;;;;47.13;25.88;;;;;;;8.93;100.00;99743.56;4986934;28;20542;-27
2023/03/22 03:12:00;;;;;;;46.75;23.88;;;;;;;8.87;100.00;99733.78;4987043;28;20038;-27
2023/03/22 03:14:31;;;;;;;43.88;23.58;;;;;;;8.92;100.00;99739.28;4987074;28;20421;-27
2023/03/22 03:17:25;;;;;;;42.60;22.52;;;;;;;8.92;100.00;99734.78;4986660;28;20141;-27
2023/03/22 03:20:02;;;;;;;63.58;35.70;;;;;;;8.94;100.00;99713.28;4986939;28;20117;-27
2023/03/22 03:22:46;;;;;;;70.03;46.17;;;;;;;8.97;100.00;99736.78;4987045;28;20034;-27
2023/03/22 03:25:27;;;;;;;75.00;44.03;;;;;;;8.54;100.00;99701.09;4987059;28;20030;-27
2023/03/22 03:28:36;;;;;;;62.90;39.05;;;;;;;8.75;100.00;99739.81;4986858;28;20069;-27
2023/03/22 03:31:09;;;;;;;72.93;47.67;;;;;;;8.79;100.00;99718.94;4910178;28;20034;-27
2023/03/22 03:33:40;;;;;;;83.30;47.83;;;;;;;9.01;100.00;99741.47;4986850;28;20041;-27
2023/03/22 03:36:12;;;;;;;76.55;47.03;;;;;;;8.80;100.00;99737.31;4986780;28;20125;-27
2023/03/22 03:38:43;;;;;;;46.22;27.70;;;;;;;9.15;100.00;99744.81;4987000;28;20038;-27
2023/03/22 03:41:15;;;;;;;223.50;120.13;;;;;;;9.10;100.00;99731.38;4986708;28;20022;-27
2023/03/22 03:43:41;;;;;;;375.92;170.85;;;;;;;9.11;100.00;99754.25;4987047;28;20022;-27
2023/03/22 03:46:07;;;;;;;262.98;154.50;;;;;;;9.19;100.00;99755.84;4986662;28;20582;-28
2023/03/22 03:48:36;;;;;;;233.60;142.50;;;;;;;9.25;100.00;99761.13;4986618;28;20026;-27
2023/03/22 03:51:02;;;;;;;70.53;44.53;;;;;;;9.29;100.00;99755.34;4986705;28;20069;-27
2023/03/22 03:53:28;;;;;;;44.85;27.00;;;;;;;9.45;100.00;99749.47;4986798;28;20089;-27
2023/03/22 03:55:54;;;;;;;37.53;22.17;;;;;;;9.65;100.00;99747.44;4969042;28;20815;-27
2023/03/22 03:58:19;;;;;;;40.30;21.50;;;;;;;9.76;100.00;99734.44;4986382;28;20486;-27
2023/03/22 04:00:46;;;;;;;36.65;21.30;;;;;;;9.81;100.00;99731.94;4986511;28;20038;-27
2023/03/22 04:03:12;;;;;;;36.47;20.40;;;;;;;9.77;100.00;99730.75;4986746;28;20031;-27
2023/03/22 04:05:38;;;;;;;34.83;19.55;;;;;;;9.75;100.00;99738.94;4986665;28;20046;-27
2023/03/22 04:08:04;;;;;;;31.42;18.58;;;;;;;9.61;100.00;99743.59;4986577;28;20034;-27
2023/03/22 04:10:29;;;;;;;36.80;19.90;;;;;;;9.61;100.00;99727.63;4986427;28;20064;-27
2023/03/22 04:12:55;;;;;;;33.00;19.80;;;;;;;9.67;100.00;99720.59;4986528;28;20026;-27
2023/03/22 04:15:20;;;;;;;33.67;18.80;;;;;;;9.22;100.00;99715.50;4986529;28;20042;-27
2023/03/22 04:17:45;;;;;;;35.03;19.75;;;;;;;9.13;100.00;99714.97;4986406;28;20022;-27
2023/03/22 04:20:12;;;;;;;32.95;19.65;;;;;;;9.30;100.00;99715.25;4986328;28;20414;-27
2023/03/22 04:22:39;;;;;;;35.15;20.70;;;;;;;9.37;100.00;99721.28;4986248;28;20109;-27
2023/03/22 04:25:10;;;;;;;39.88;20.90;;;;;;;9.03;100.00;99717.28;4986276;28;20512;-27
2023/03/22 04:27:37;;;;;;;37.00;21.52;;;;;;;9.15;100.00;99728.84;4969618;28;20041;-27
2023/03/22 04:30:03;;;;;;;36.45;19.23;;;;;;;9.41;100.00;99738.44;4989069;28;20552;-27
2023/03/22 04:32:29;;;;;;;38.90;21.30;;;;;;;9.32;100.00;99744.28;4989960;28;20022;-27
2023/03/22 04:34:54;;;;;;;38.17;22.77;;;;;;;9.36;100.00;99758.78;4989593;28;20057;-27
2023/03/22 04:37:23;;;;;;;43.42;25.08;;;;;;;9.43;100.00;99757.69;4989647;28;20453;-26
2023/03/22 04:39:49;;;;;;;260.80;119.43;;;;;;;9.13;100.00;99780.66;4989840;28;20026;-26
2023/03/22 04:42:14;;;;;;;141.25;71.80;;;;;;;9.05;100.00;99792.38;4989527;28;20026;-27
2023/03/22 04:44:39;;;;;;;108.55;57.13;;;;;;;9.21;100.00;99791.88;4989904;28;20046;-26
2023/03/22 04:47:05;;;;;;;49.42;26.88;;;;;;;9.18;100.00;99794.13;4989423;28;20109;-26
2023/03/22 04:49:30;;;;;;;49.55;26.35;;;;;;;9.18;100.00;99789.63;4989782;28;20049;-27
2023/03/22 04:51:56;;;;;;;46.42;26.58;;;;;;;9.19;100.00;99803.72;4989448;28;20113;-26
2023/03/22 04:54:22;;;;;;;42.38;24.25;;;;;;;9.17;100.00;99801.28;4989477;28;20037;-26
2023/03/22 04:56:49;;;;;;;36.35;20.80;;;;;;;9.22;100.00;99798.81;4989544;28;20420;-26
2023/03/22 04:59:18;;;;;;;45.20;28.77;;;;;;;9.21;100.00;99796.34;4989346;28;20090;-27
2023/03/22 05:01:47;;;;;;;43.53;25.85;;;;;;;9.11;100.00;99807.47;4989559;28;20097;-26
2023/03/22 05:04:14;;;;;;;39.97;24.15;;;;;;;9.31;100.00;99806.53;4989131;28;20121;-26
2023/03/22 05:06:39;;;;;;;41.42;22.63;;;;;;;9.43;100.00;99807.44;4989094;28;20034;-27
2023/03/22 05:09:05;;;;;;;40.85;23.75;;;;;;;9.30;100.00;99813.69;4989087;28;20473;-27
2023/03/22 05:11:30;;;;;;;38.60;23.20;;;;;;;9.40;100.00;99823.88;4989314;28;20047;-26
2023/03/22 05:13:56;;;;;;;38.25;23.20;;;;;;;9.39;100.00;99824.88;4988894;28;20034;-27
2023/03/22 05:16:22;;;;;;;38.70;25.40;;;;;;;9.44;100.00;99825.88;4988931;28;20038;-27
2023/03/22 05:18:53;;;;;;;32.55;21.35;;;;;;;9.56;100.00;99828.63;4988944;28;20090;-27
2023/03/22 05:21:20;;;;;;;33.42;21.58;;;;;;;9.79;100.00;99824.53;4989079;28;20080;-27
2023/03/22 05:23:47;;;;;;;37.40;23.80;;;;;;;9.76;100.00;99824.97;4989008;28;20512;-27
2023/03/22 05:26:19;;;;;;;30.75;20.75;;;;;;;9.86;100.00;99818.09;4988458;28;20395;-27
2023/03/22 05:28:44;;;;;;;34.75;20.88;;;;;;;9.89;100.00;99840.00;4988932;28;20030;-26
2023/03/22 05:31:13;;;;;;;33.50;20.77;;;;;;;9.79;100.00;99841.34;4988741;28;20500;-26
2023/03/22 05:33:40;;;;;;;;;;;;;;;9.69;100.00;99843.69;4988868;28;20077;-27
2023/03/22 05:36:06;;;;;;;30.35;20.15;;;;;;;9.88;100.00;99847.19;4988685;28;19957;-27
2023/03/22 05:38:32;;;;;;;31.17;19.65;;;;;;;9.98;100.00;99844.03;4988794;28;20030;-26
2023/03/22 05:40:57;;;;;;;37.22;23.00;;;;;;;10.00;100.00;99848.09;4988020;28;20030;-26
2023/03/22 05:43:23;;;;;;;40.72;26.95;;;;;;;9.85;100.00;99842.31;4988406;28;20028;-27
2023/03/22 05:45:48;;;;;;;83.35;52.53;;;;;;;9.79;100.00;99845.84;4988496;28;20022;-27
2023/03/22 05:48:14;;;;;;;89.25;54.78;;;;;;;9.84;100.00;99857.47;4988417;28;20038;-26
2023/03/22 05:50:40;;;;;;;84.97;53.88;;;;;;;9.97;100.00;99859.19;4988439;28;20050;-26
2023/03/22 05:53:05;;;;;;;52.42;32.83;;;;;;;10.12;100.00;99866.03;4988269;28;20433;-27
2023/03/22 05:55:31;;;;;;;37.58;25.00;;;;;;;10.12;100.00;99866.03;4988403;28;20812;-27
2023/03/22 05:57:57;;;;;;;44.65;29.63;;;;;;;10.00;100.00;99874.72;4988139;28;20019;-25
2023/03/22 06:00:24;;;;;;;41.55;27.70;;;;;;;10.04;100.00;99870.59;4987678;28;20043;-27
2023/03/22 06:02:55;;;;;;;37.25;24.33;;;;;;;10.17;100.00;99874.16;4987972;28;20421;-27
2023/03/22 06:05:20;;;;;;;31.55;18.75;;;;;;;10.29;100.00;99861.72;4988400;28;20150;-25
2023/03/22 06:07:45;;;;;;;33.30;20.13;;;;;;;10.26;100.00;99867.53;4988056;28;20038;-27
2023/03/22 06:10:13;;;;;;;30.42;18.35;;;;;;;10.25;100.00;99877.34;4988192;28;20453;-27
2023/03/22 06:12:39;;;;;;;33.27;20.27;;;;;;;10.23;100.00;99867.94;4987987;28;20027;-27
2023/03/22 06:15:05;;;;;;;32.10;19.80;;;;;;;10.36;100.00;99862.50;4987874;28;20026;-26
2023/03/22 06:17:31;;;;;;;29.42;19.23;;;;;;;10.19;100.00;99850.78;4988111;28;20080;-26
2023/03/22 06:19:56;;;;;;;31.02;20.40;;;;;;;10.05;100.00;99872.25;4987924;28;20042;-26
2023/03/22 06:22:22;;;;;;;40.65;25.85;;;;;;;10.19;100.00;99882.75;4987917;28;20121;-26
2023/03/22 06:24:48;;;;;;;42.88;26.52;;;;;;;10.36;100.00;99878.50;4988115;28;20037;-26
2023/03/22 06:27:15;;;;;;;35.75;23.42;;;;;;;10.47;100.00;99884.13;4988160;28;20038;-27
2023/03/22 06:29:40;;;;;;;32.63;21.17;;;;;;;10.31;100.00;99902.34;4987888;28;20162;-26
2023/03/22 06:32:06;;;;;;;33.47;21.23;;;;;;;10.26;100.00;99899.50;4987659;28;20188;-27
2023/03/22 06:34:32;;;;;;;36.05;20.80;;;;;;;10.49;100.00;99903.41;4987727;28;20034;-27
2023/03/22 06:36:58;;;;;;;30.67;19.08;;;;;;;10.32;100.00;99913.81;4987641;28;20105;-26
2023/03/22 06:39:24;;;;;;;30.25;19.67;;;;;;;10.61;100.00;99923.75;4987309;28;20422;-27
2023/03/22 06:41:49;;;;;;;53.90;28.88;;;;;;;10.49;100.00;99925.53;4987227;28;20018;-26
2023/03/22 06:44:15;;;;;;;38.80;21.75;;;;;;;10.49;100.00;99920.19;4987359;28;20034;-27
2023/03/22 06:46:41;;;;;;;46.50;31.25;;;;;;;10.57;100.00;99921.75;4987402;28;20034;-25
2023/03/22 06:49:06;;;;;;;38.38;26.45;;;;;;;10.58;100.00;99936.72;4987569;28;20481;-26
2023/03/22 06:51:32;;;;;;;45.20;33.22;;;;;;;10.63;100.00;99927.00;4986294;28;20080;-26
2023/03/22 06:53:58;;;;;;;34.40;22.13;;;;;;;10.94;100.00;99924.41;4987307;28;20084;-26
2023/03/22 06:56:23;;;;;;;29.02;18.33;;;;;;;11.06;100.00;99936.75;4987296;28;20023;-27
2023/03/22 06:58:50;;;;;;;33.75;20.05;;;;;;;10.86;100.00;99931.66;4987237;28;20453;-27
2023/03/22 07:01:17;;;;;;;33.13;23.65;;;;;;;11.05;100.00;99934.31;4987318;28;20137;-26
2023/03/22 07:03:42;;;;;;;39.35;30.35;;;;;;;10.92;100.00;99950.50;4986922;28;20033;-27
2023/03/22 07:06:08;;;;;;;41.58;32.47;;;;;;;10.57;100.00;99953.75;4987455;28;20042;-26
2023/03/22 07:08:35;;;;;;;39.80;30.00;;;;;;;10.17;100.00;99967.44;4986961;28;20030;-27
2023/03/22 07:11:01;;;;;;;42.60;31.07;;;;;;;10.43;100.00;99953.06;4987355;28;20049;-26
2023/03/22 07:13:27;;;;;;;39.80;26.90;;;;;;;10.64;100.00;99943.81;4986748;28;20421;-27
2023/03/22 07:15:56;;;;;;;36.83;23.10;;;;;;;10.63;100.00;99950.22;4986942;28;20405;-27
2023/03/22 07:18:23;;;;;;;34.05;21.67;;;;;;;10.59;100.00;99957.03;4987110;28;20030;-26
2023/03/22 07:20:48;;;;;;;37.90;25.45;;;;;;;10.68;100.00;99952.19;4987103;28;20019;-26
2023/03/22 07:23:15;;;;;;;32.40;20.65;;;;;;;10.64;100.00;99950.00;4987074;28;20038;-27
2023/03/22 07:25:41;;;;;;;33.92;22.83;;;;;;;10.65;100.00;99964.13;4986936;28;20069;-27
2023/03/22 07:28:06;;;;;;;38.17;25.50;;;;;;;10.86;100.00;99963.69;4986870;28;20077;-26
2023/03/22 07:30:36;;;;;;;40.25;25.50;;;;;;;11.03;100.00;99931.03;4986837;28;20061;-27
2023/03/22 07:33:01;;;;;;;41.10;27.15;;;;;;;11.16;100.00;99957.56;4987011;28;20034;-27
2023/03/22 07:35:27;;;;;;;36.42;24.55;;;;;;;11.03;100.00;99955.06;4986782;28;20027;-27
2023/03/22 07:37:53;;;;;;;35.55;23.65;;;;;;;11.14;100.00;99964.19;4986822;28;20027;-27
2023/03/22 07:40:18;;;;;;;37.97;24.60;;;;;;;11.30;100.00;99952.88;4986572;28;20073;-29
2023/03/22 07:42:47;;;;;;;36.65;23.73;;;;;;;11.44;100.00;99932.13;4986616;28;20524;-27
2023/03/22 07:45:12;;;;;;;35.08;23.15;;;;;;;11.64;100.00;99953.22;4985523;28;20026;-27
2023/03/22 07:47:38;;;;;;;32.63;22.63;;;;;;;11.54;100.00;99964.44;4985867;28;20076;-26
2023/03/22 07:50:04;;;;;;;42.13;25.77;;;;;;;11.47;100.00;99963.72;4986923;28;20033;-27
2023/03/22 07:52:29;;;;;;;41.70;25.60;;;;;;;11.35;100.00;99966.34;4986668;28;20030;-26
2023/03/22 07:54:55;;;;;;;36.10;22.58;;;;;;;11.36;100.00;99968.00;4986500;28;20037;-27
2023/03/22 07:57:20;;;;;;;42.90;24.02;;;;;;;11.57;100.00;99980.03;4986123;28;20030;-27
2023/03/22 07:59:45;;;;;;;54.88;29.92;;;;;;;11.32;100.00;99968.66;4986301;28;20046;-26
2023/03/22 08:02:11;;;;;;;48.85;27.17;;;;;;;11.36;100.00;99967.16;4986717;28;20484;-27
2023/03/22 08:04:36;;;;;;;41.42;25.63;;;;;;;11.43;100.00;99966.03;4989770;28;20036;-27
2023/03/22 08:07:02;;;;;;;42.25;25.55;;;;;;;11.44;100.00;99964.16;4989981;28;20030;-28
2023/03/22 08:09:28;;;;;;;42.63;26.02;;;;;;;11.77;100.00;99968.22;4990205;28;20121;-26
2023/03/22 08:11:53;;;;;;;40.13;25.27;;;;;;;12.11;100.00;99969.34;4990277;28;20064;-27
2023/03/22 08:14:19;;;;;;;37.33;24.23;;;;;;;12.00;100.00;99967.50;4989989;28;20446;-27
2023/03/22 08:16:45;;;;;;;34.92;22.55;;;;;;;11.80;100.00;99957.88;4990236;28;20030;-27
2023/03/22 08:19:10;;;;;;;39.70;25.35;;;;;;;11.96;100.00;99964.47;4990093;28;20022;-27
2023/03/22 08:21:36;;;;;;;36.30;22.08;;;;;;;12.11;100.00;99968.53;4990077;28;20022;-26
2023/03/22 08:24:03;;;;;;;30.08;20.33;;;;;;;11.99;100.00;99968.53;4990111;28;20054;-26
2023/03/22 08:26:29;;;;;;;36.17;21.27;;;;;;;11.99;100.00;99958.66;4989964;28;20041;-26
2023/03/22 08:28:55;;;;;;;38.30;23.92;;;;;;;12.10;100.00;99962.38;4990133;28;20026;-27
2023/03/22 08:31:21;;;;;;;34.88;23.02;;;;;;;12.35;100.00;99967.50;4990323;28;20035;-27
2023/03/22 08:33:47;;;;;;;39.97;25.25;;;;;;;12.41;100.00;99969.25;4990029;28;20033;-27
2023/03/22 08:36:16;;;;;;;35.58;22.75;;;;;;;12.42;100.00;99976.25;4989801;28;20510;-27
2023/03/22 08:38:41;;;;;;;;;;;;;;;12.53;100.00;99968.44;4990193;28;20031;-27
2023/03/22 08:41:07;;;;;;;33.53;22.10;;;;;;;12.57;100.00;99974.94;4989798;28;19914;-27
2023/03/22 08:43:33;;;;;;;33.13;19.60;;;;;;;12.45;100.00;99967.72;4989825;28;20026;-27
2023/03/22 08:45:58;;;;;;;31.92;20.75;;;;;;;12.55;100.00;99969.03;4989791;28;20441;-27
2023/03/22 08:48:23;;;;;;;30.42;20.10;;;;;;;12.41;100.00;99977.28;4989806;28;20080;-27
2023/03/22 08:50:49;;;;;;;31.67;19.27;;;;;;;12.10;100.00;99978.44;4989737;28;20034;-28
2023/03/22 08:53:14;;;;;;;30.73;19.77;;;;;;;12.38;100.00;99983.09;4989706;28;20027;-28
2023/03/22 08:55:43;;;;;;;30.02;19.40;;;;;;;12.16;100.00;99987.41;4989526;28;20092;-27
2023/03/22 08:58:13;;;;;;;27.98;18.58;;;;;;;12.02;100.00;99986.78;4989307;28;20081;-26
2023/03/22 09:00:40;;;;;;;32.00;20.60;;;;;;;12.06;100.00;99967.38;4989474;28;20510;-27
2023/03/22 09:03:05;;;;;;;35.17;20.25;;;;;;;12.44;100.00;99992.88;4989192;28;20092;-27
2023/03/22 09:05:31;;;;;;;30.38;19.02;;;;;;;12.51;100.00;99992.75;4989338;28;20413;-27
2023/03/22 09:07:56;;;;;;;28.63;18.67;;;;;;;12.52;100.00;99990.88;4989161;28;20035;-27
2023/03/22 09:10:22;;;;;;;32.95;20.08;;;;;;;12.78;100.00;99989.56;4989188;28;20030;-27
2023/03/22 09:12:48;;;;;;;29.25;19.23;;;;;;;12.37;100.00;99981.47;4989127;28;20110;-27
2023/03/22 09:15:13;;;;;;;26.65;17.40;;;;;;;12.32;100.00;99988.53;4988267;28;20029;-27
2023/03/22 09:17:38;;;;;;;28.95;20.02;;;;;;;12.65;100.00;99972.72;4989151;28;20113;-27
2023/03/22 09:20:06;;;;;;;28.42;19.15;;;;;;;12.75;100.00;99990.03;4989146;28;20029;-27
2023/03/22 09:22:31;;;;;;;29.60;19.23;;;;;;;12.81;100.00;99989.94;4988857;28;20030;-27
2023/03/22 09:24:57;;;;;;;27.77;19.15;;;;;;;12.88;100.00;99994.34;4988905;28;20129;-27
2023/03/22 09:27:22;;;;;;;25.63;18.15;;;;;;;12.98;100.00;100000.72;4989132;28;20421;-27
2023/03/22 09:29:49;;;;;;;25.95;17.63;;;;;;;13.10;100.00;99991.81;4988644;28;20026;-27
2023/03/22 09:32:15;;;;;;;24.60;17.75;;;;;;;13.06;100.00;99988.81;4989096;28;20054;-27
2023/03/22 09:34:41;;;;;;;26.50;17.92;;;;;;;13.35;99.79;99994.22;4988726;28;20038;-27
2023/03/22 09:37:06;;;;;;;33.20;19.45;;;;;;;13.49;100.00;99989.41;4988726;28;20395;-27
2023/03/22 09:39:32;;;;;;;27.63;18.55;;;;;;;13.74;96.66;99979.13;4988722;28;20022;-27
2023/03/22 09:42:01;;;;;;;30.63;20.88;;;;;;;13.70;98.98;99990.59;4988795;28;20034;-27
2023/03/22 09:44:42;;;;;;;26.73;19.08;;;;;;;13.77;97.26;99967.09;4988767;28;20454;-27
2023/03/22 09:47:14;;;;;;;28.23;19.15;;;;;;;13.71;95.92;99981.47;4988716;28;20019;-27
2023/03/22 09:49:43;;;;;;;22.10;15.93;;;;;;;13.78;96.11;99980.28;4988748;28;20054;-27
2023/03/22 09:52:14;;;;;;;26.65;17.95;;;;;;;13.87;97.70;99964.59;4988592;28;20077;-27
2023/03/22 09:54:42;;;;;;;24.33;17.83;;;;;;;14.47;97.62;99985.38;4988724;28;20057;-27
2023/03/22 09:57:28;;;;;;;;;;;;;;;14.55;90.93;99986.03;4988874;28;20069;-27
2023/03/22 10:00:13;;;;;;;22.77;14.52;;;;;;;14.18;90.59;99970.44;4969998;28;19921;-27
2023/03/22 10:02:44;;;;;;;24.15;17.17;;;;;;;14.28;95.48;99975.97;4988523;28;20117;-27
2023/03/22 10:05:12;;;;;;;27.42;18.88;;;;;;;13.99;92.01;99957.28;4988162;28;20026;-27
2023/03/22 10:08:11;;;;;;;24.17;17.80;;;;;;;14.07;97.31;99966.81;4988130;28;20034;-27
2023/03/22 10:10:40;;;;;;;25.40;17.30;;;;;;;14.53;98.70;99972.06;4988134;28;20035;-27
2023/03/22 10:13:18;;;;;;;25.48;17.05;;;;;;;14.29;95.62;99956.16;4988059;28;20121;-27
2023/03/22 10:15:47;;;;;;;26.33;16.60;;;;;;;14.29;94.83;99961.50;4987979;28;20030;-27
2023/03/22 10:18:35;;;;;;;22.08;16.27;;;;;;;14.55;94.77;99961.88;4988149;28;20502;-27
2023/03/22 10:21:06;;;;;;;23.25;16.40;;;;;;;14.84;93.55;99967.94;4987821;28;20034;-27
2023/03/22 10:23:51;;;;;;;21.17;15.13;;;;;;;14.52;97.70;99976.59;4981743;28;20556;-27
2023/03/22 10:26:28;;;;;;;22.63;16.25;;;;;;;14.69;95.61;99955.13;4976271;28;20101;-27
2023/03/22 10:29:26;;;;;;;19.00;14.65;;;;;;;14.92;95.17;99980.13;4986011;28;20040;-27
2023/03/22 10:31:52;;;;;;;25.02;16.65;;;;;;;14.63;94.22;99956.94;4986846;28;20038;-27
2023/03/22 10:34:22;;;;;;;18.88;13.95;;;;;;;15.54;89.19;99973.53;4987569;28;20104;-27
2023/03/22 10:36:50;;;;;;;21.23;15.10;;;;;;;14.95;90.13;99963.47;4987786;28;20120;-27
2023/03/22 10:39:21;;;;;;;;;;;;;;;15.09;91.06;99980.03;4988018;28;20053;-27
2023/03/22 10:41:48;;;;;;;17.85;13.32;;;;;;;15.16;85.46;99986.84;4987531;28;19913;-27
2023/03/22 10:44:17;;;;;;;20.83;14.73;;;;;;;14.88;91.10;99965.56;4987259;28;20494;-27
2023/03/22 10:46:44;;;;;;;24.10;16.67;;;;;;;14.35;93.89;99971.25;4987422;28;20476;-27
2023/03/22 10:49:24;;;;;;;20.73;15.30;;;;;;;14.06;94.77;99971.34;4987359;28;20493;-27
2023/03/22 10:51:55;;;;;;;22.52;15.18;;;;;;;14.25;94.95;99974.59;4987456;28;20101;-27
2023/03/22 10:54:23;;;;;;;22.30;14.70;;;;;;;14.27;96.08;99969.00;4987166;28;20018;-27
2023/03/22 10:56:49;;;;;;;20.55;13.57;;;;;;;13.79;95.80;99968.50;4987058;28;20042;-27
2023/03/22 10:59:50;;;;;;;20.63;15.32;;;;;;;13.81;97.39;99968.25;4987551;28;20794;-27
2023/03/22 11:02:21;;;;;;;22.30;16.08;;;;;;;13.66;99.68;99966.94;4987080;28;20034;-27
2023/03/22 11:04:48;;;;;;;22.17;15.27;;;;;;;13.75;98.14;99966.53;4987247;28;20505;-27
2023/03/22 11:07:35;;;;;;;29.27;21.10;;;;;;;13.64;100.00;99965.56;4987178;28;20034;-27
2023/03/22 11:10:06;;;;;;;32.67;19.85;;;;;;;13.31;100.00;99966.31;4987286;28;20018;-27
2023/03/22 11:12:32;;;;;;;29.48;19.88;;;;;;;13.20;100.00;99966.06;4987069;28;20023;-27
2023/03/22 11:14:58;;;;;;;40.58;25.08;;;;;;;13.36;100.00;99953.00;4987063;28;20433;-27
2023/03/22 11:17:27;;;;;;;32.25;20.98;;;;;;;13.23;100.00;99962.91;4986703;28;20461;-27
2023/03/22 11:19:57;;;;;;;38.10;24.92;;;;;;;13.11;100.00;99950.63;4987367;28;20034;-27
2023/03/22 11:22:40;;;;;;;33.75;20.90;;;;;;;13.09;100.00;99947.38;4987029;28;20022;-27